createdAt,value
2022-10-11T00:00:44.839Z,77.26
2022-10-11T00:05:46.546Z,76.67
2022-10-11T00:11:05.937Z,76.48
2022-10-11T00:16:09.883Z,77.03
2022-10-11T00:21:14.216Z,76.60
2022-10-11T00:26:16.154Z,75.69
2022-10-11T00:31:18.299Z,76.38
2022-10-11T00:36:20.428Z,76.84
2022-10-11T00:41:22.394Z,77.08
2022-10-11T00:46:30.061Z,76.56
2022-10-11T00:51:41.246Z,75.71
2022-10-11T00:56:45.997Z,76.42
2022-10-11T01:01:47.819Z,76.74
2022-10-11T01:06:50.552Z,76.22
2022-10-11T01:11:56.353Z,75.97
2022-10-11T01:17:06.222Z,77.17
2022-10-11T01:22:13.827Z,76.63
2022-10-11T01:27:25.935Z,77.68
2022-10-11T01:32:38.168Z,77.26
2022-10-11T01:37:54.175Z,76.90
2022-10-11T01:42:57.546Z,76.46
2022-10-11T01:48:11.111Z,76.98
2022-10-11T01:53:12.864Z,76.71
2022-10-11T01:58:40.981Z,77.33
2022-10-11T02:04:04.408Z,77.62
2022-10-11T02:09:20.176Z,77.07
2022-10-11T02:14:26.565Z,76.87
2022-10-11T02:19:33.224Z,76.32
2022-10-11T02:24:39.724Z,77.38
2022-10-11T02:29:43.765Z,76.89
2022-10-11T02:34:52.723Z,76.67
2022-10-11T02:39:56.600Z,77.29
2022-10-11T02:45:07.500Z,77.45
2022-10-11T02:50:12.162Z,77.32
2022-10-11T02:55:28.903Z,78.07
2022-10-11T03:01:03.075Z,78.24
2022-10-11T03:06:05.737Z,78.33
2022-10-11T03:11:07.842Z,78.92
2022-10-11T03:16:09.923Z,79.27
2022-10-11T03:21:11.730Z,78.75
2022-10-11T03:26:13.484Z,79.07
2022-10-11T03:31:15.099Z,79.38
2022-10-11T03:36:17.374Z,80.46
2022-10-11T03:41:19.083Z,80.11
2022-10-11T03:46:20.783Z,81.06
2022-10-11T03:51:22.482Z,80.54
2022-10-11T03:56:24.155Z,81.07
2022-10-11T04:01:25.958Z,81.03
2022-10-11T04:06:27.603Z,81.44
2022-10-11T04:11:29.253Z,82.23
2022-10-11T04:16:30.967Z,82.89
2022-10-11T04:21:33.792Z,82.78
2022-10-11T04:26:35.523Z,82.27
2022-10-11T04:31:37.104Z,82.53
2022-10-11T04:36:39.198Z,83.34
2022-10-11T04:41:41.040Z,82.81
2022-10-11T04:46:42.751Z,82.84
2022-10-11T04:51:44.426Z,83.10
2022-10-11T04:56:46.090Z,83.38
2022-10-11T05:01:47.976Z,83.46
2022-10-11T05:06:49.679Z,83.73
2022-10-11T05:11:51.418Z,83.08
2022-10-11T05:16:53.072Z,83.74
2022-10-11T05:21:55.386Z,83.77
2022-10-11T05:26:59.784Z,83.44
2022-10-11T05:32:04.424Z,83.12
2022-10-11T05:37:06.121Z,83.60
2022-10-11T05:42:09.926Z,83.80
2022-10-11T05:47:11.963Z,83.65
2022-10-11T05:52:13.687Z,83.25
2022-10-11T05:57:15.881Z,83.79
2022-10-11T06:02:17.563Z,84.12
2022-10-11T06:07:19.310Z,83.77
2022-10-11T06:12:21.813Z,84.25
2022-10-11T06:17:24.284Z,84.60
2022-10-11T06:22:26.782Z,85.43
2022-10-11T06:27:28.376Z,85.21
2022-10-11T06:32:30.130Z,84.87
2022-10-11T06:37:31.700Z,84.19
2022-10-11T06:42:33.308Z,84.10
2022-10-11T06:47:34.966Z,83.45
2022-10-11T06:52:36.593Z,83.58
2022-10-11T06:57:38.285Z,83.86
2022-10-11T07:02:40.068Z,84.88
2022-10-11T07:07:41.833Z,84.70
2022-10-11T07:12:44.815Z,84.35
2022-10-11T07:17:46.488Z,85.10
2022-10-11T07:22:48.092Z,84.71
2022-10-11T07:27:49.747Z,83.53
2022-10-11T07:32:52.546Z,83.57
2022-10-11T07:37:55.041Z,84.12
2022-10-11T07:42:58.189Z,84.81
2022-10-11T07:47:59.907Z,85.02
2022-10-11T07:53:01.680Z,84.95
2022-10-11T07:58:03.385Z,84.82
2022-10-11T08:03:06.220Z,85.34
2022-10-11T08:08:07.897Z,85.68
2022-10-11T08:13:09.599Z,83.81
2022-10-11T08:18:11.338Z,81.74
2022-10-11T08:23:13.355Z,81.70
2022-10-11T08:28:17.821Z,81.77
2022-10-11T08:33:21.373Z,81.83
2022-10-11T08:38:24.157Z,80.75
2022-10-11T08:43:31.826Z,81.84
2022-10-11T08:48:42.300Z,82.02
2022-10-11T08:53:53.184Z,81.17
2022-10-11T08:59:06.765Z,80.73
2022-10-11T09:04:17.211Z,77.08
2022-10-11T09:09:21.826Z,72.55
2022-10-11T09:14:35.334Z,70.60
2022-10-11T09:20:21.202Z,66.33
2022-10-11T09:25:47.190Z,63.02
2022-10-11T09:30:54.586Z,62.59
2022-10-11T09:35:57.222Z,60.97
2022-10-11T09:41:29.162Z,58.44
2022-10-11T09:46:41.310Z,58.44
2022-10-11T09:51:47.207Z,56.12
2022-10-11T09:56:48.893Z,54.02
2022-10-11T10:02:26.265Z,54.38
2022-10-11T10:07:30.875Z,54.39
2022-10-11T10:12:32.642Z,52.83
2022-10-11T10:17:36.258Z,53.62
2022-10-11T10:22:37.883Z,52.67
2022-10-11T10:27:57.817Z,51.67
2022-10-11T10:33:11.693Z,51.40
2022-10-11T10:38:24.093Z,50.20
2022-10-11T10:43:33.598Z,50.07
2022-10-11T10:49:23.623Z,47.00
2022-10-11T10:54:57.675Z,49.02
2022-10-11T11:00:03.200Z,48.21
2022-10-11T11:05:33.794Z,47.55
2022-10-11T11:10:42.980Z,49.51
2022-10-11T11:15:54.650Z,50.39
2022-10-11T11:21:02.181Z,52.15
2022-10-11T11:26:43.463Z,52.18
2022-10-11T11:32:05.050Z,52.27
2022-10-11T11:37:20.090Z,50.76
2022-10-11T11:42:34.919Z,49.11
2022-10-11T11:47:40.751Z,46.34
2022-10-11T11:52:50.773Z,46.88
2022-10-11T11:58:24.565Z,43.31
2022-10-11T12:03:41.409Z,43.49
2022-10-11T12:08:47.001Z,45.15
2022-10-11T12:13:52.555Z,46.77
2022-10-11T12:19:02.041Z,46.56
2022-10-11T12:24:19.299Z,43.71
2022-10-11T12:29:48.680Z,44.12
2022-10-11T12:35:29.028Z,43.80
2022-10-11T12:40:46.049Z,44.72
2022-10-11T12:45:48.153Z,44.81
2022-10-11T12:51:16.466Z,44.81
2022-10-11T12:56:37.762Z,44.86
2022-10-11T13:01:52.488Z,43.90
2022-10-11T13:06:57.067Z,44.49
2022-10-11T13:12:19.586Z,44.88
2022-10-11T13:17:26.033Z,46.30
2022-10-11T13:22:27.823Z,46.77
2022-10-11T13:27:29.725Z,44.91
2022-10-11T13:32:32.470Z,43.69
2022-10-11T13:37:44.244Z,45.62
2022-10-11T13:42:48.507Z,46.74
2022-10-11T13:47:52.323Z,47.88
2022-10-11T13:53:09.848Z,48.42
2022-10-11T13:58:32.252Z,49.92
2022-10-11T14:03:40.807Z,48.15
2022-10-11T14:08:42.345Z,48.72
2022-10-11T14:13:46.618Z,48.35
2022-10-11T14:19:08.135Z,49.09
2022-10-11T14:24:13.217Z,50.60
2022-10-11T14:29:23.648Z,52.06
2022-10-11T14:34:26.953Z,52.81
2022-10-11T14:39:31.133Z,50.24
2022-10-11T14:44:33.028Z,50.23
2022-10-11T14:49:37.218Z,50.11
2022-10-11T14:54:39.287Z,50.03
2022-10-11T14:59:43.163Z,50.98
2022-10-11T15:04:44.782Z,52.28
2022-10-11T15:09:46.819Z,50.55
2022-10-11T15:14:48.587Z,52.46
2022-10-11T15:19:50.908Z,52.84
2022-10-11T15:24:52.516Z,52.00
2022-10-11T15:29:54.546Z,52.53
2022-10-11T15:34:56.141Z,52.15
2022-10-11T15:39:58.201Z,53.60
2022-10-11T15:45:00.164Z,53.47
2022-10-11T15:50:34.675Z,53.67
2022-10-11T15:55:40.028Z,53.38
2022-10-11T16:00:46.439Z,54.43
2022-10-11T16:05:48.843Z,54.30
2022-10-11T16:10:52.014Z,55.01
2022-10-11T16:15:54.283Z,55.52
2022-10-11T16:20:57.213Z,56.73
2022-10-11T16:26:04.026Z,56.61
2022-10-11T16:31:18.130Z,58.21
2022-10-11T16:36:47.544Z,57.81
2022-10-11T16:41:51.758Z,58.21
2022-10-11T16:46:55.380Z,59.56
2022-10-11T16:52:04.917Z,60.49
2022-10-11T16:57:06.955Z,60.47
2022-10-11T17:02:16.890Z,61.09
2022-10-11T17:07:19.584Z,63.08
2022-10-11T17:12:26.318Z,63.54
2022-10-11T17:17:28.131Z,64.23
2022-10-11T17:22:29.795Z,65.03
2022-10-11T17:27:31.402Z,66.00
2022-10-11T17:32:33.237Z,66.51
2022-10-11T17:37:35.234Z,66.79
2022-10-11T17:42:37.025Z,67.66
2022-10-11T17:47:38.875Z,68.75
2022-10-11T17:52:41.279Z,68.33
2022-10-11T17:57:43.344Z,69.19
2022-10-11T18:02:45.130Z,69.06
2022-10-11T18:07:46.787Z,68.93
2022-10-11T18:12:54.017Z,69.19
2022-10-11T18:17:57.718Z,70.16
2022-10-11T18:23:00.125Z,70.47
2022-10-11T18:28:01.774Z,70.31
2022-10-11T18:33:10.989Z,71.12
2022-10-11T18:38:26.835Z,71.50
2022-10-11T18:43:28.707Z,71.20
2022-10-11T18:48:32.647Z,71.56
2022-10-11T18:53:36.541Z,72.51
2022-10-11T18:58:39.537Z,72.62
2022-10-11T19:03:42.193Z,71.83
2022-10-11T19:09:21.586Z,72.49
2022-10-11T19:14:28.907Z,72.85
2022-10-11T19:19:32.758Z,72.66
2022-10-11T19:24:34.517Z,73.45
2022-10-11T19:29:37.113Z,73.76
2022-10-11T19:34:39.760Z,73.55
2022-10-11T19:39:41.464Z,74.00
2022-10-11T19:44:43.142Z,74.43
2022-10-11T19:49:44.727Z,74.48
2022-10-11T19:54:46.318Z,74.68
2022-10-11T19:59:47.967Z,74.88
2022-10-11T20:04:53.326Z,75.17
2022-10-11T20:09:55.175Z,75.48
2022-10-11T20:14:59.769Z,75.22
2022-10-11T20:20:01.335Z,75.14
2022-10-11T20:25:03.728Z,75.53
2022-10-11T20:30:05.689Z,75.60
2022-10-11T20:35:10.201Z,75.97
2022-10-11T20:40:12.422Z,75.82
2022-10-11T20:45:14.287Z,75.99
2022-10-11T20:50:22.908Z,76.18
2022-10-11T20:55:24.913Z,76.61
2022-10-11T21:00:26.634Z,76.49
2022-10-11T21:05:28.425Z,76.83
2022-10-11T21:10:30.824Z,76.68
2022-10-11T21:15:32.934Z,76.99
2022-10-11T21:20:38.593Z,76.62
2022-10-11T21:25:40.511Z,76.70
2022-10-11T21:30:42.125Z,76.92
2022-10-11T21:35:43.861Z,77.40
2022-10-11T21:40:45.427Z,77.14
2022-10-11T21:45:47.263Z,77.24
2022-10-11T21:50:53.287Z,77.31
2022-10-11T21:55:59.175Z,77.59
2022-10-11T22:01:00.905Z,77.56
2022-10-11T22:06:03.746Z,78.02
2022-10-11T22:11:06.047Z,77.87
2022-10-11T22:16:10.138Z,78.12
2022-10-11T22:21:15.149Z,77.70
2022-10-11T22:26:25.388Z,78.02
2022-10-11T22:31:27.979Z,78.29
2022-10-11T22:36:30.752Z,77.81
2022-10-11T22:41:32.463Z,78.21
2022-10-11T22:46:34.090Z,78.66
2022-10-11T22:51:35.667Z,79.12
2022-10-11T22:56:37.324Z,79.44
2022-10-11T23:01:38.957Z,79.82
2022-10-11T23:06:40.541Z,79.56
2022-10-11T23:11:42.090Z,79.13
2022-10-11T23:16:43.717Z,79.43
2022-10-11T23:21:46.515Z,79.78
2022-10-11T23:26:49.134Z,79.54
2022-10-11T23:31:51.190Z,79.42
2022-10-11T23:36:52.850Z,79.82
2022-10-11T23:41:55.227Z,79.86
2022-10-11T23:46:56.821Z,79.15
2022-10-11T23:51:58.448Z,79.71
2022-10-11T23:56:59.994Z,79.72
